createdAt,value
2022-12-26T00:00:36.010Z,2.40
2022-12-26T00:03:03.123Z,2.20
2022-12-26T00:05:29.925Z,2.50
2022-12-26T00:07:56.613Z,2.05
2022-12-26T00:10:23.415Z,2.15
2022-12-26T00:12:50.110Z,2.40
2022-12-26T00:15:17.004Z,2.30
2022-12-26T00:17:43.756Z,1.98
2022-12-26T00:20:10.970Z,2.10
2022-12-26T00:22:37.726Z,1.98
2022-12-26T00:25:04.806Z,2.28
2022-12-26T00:27:32.440Z,1.90
2022-12-26T00:29:59.182Z,2.47
2022-12-26T00:32:25.954Z,2.30
2022-12-26T00:34:52.633Z,2.08
2022-12-26T00:37:19.364Z,2.33
2022-12-26T00:39:46.068Z,2.20
2022-12-26T00:42:12.996Z,1.90
2022-12-26T00:44:39.655Z,2.08
2022-12-26T00:47:06.430Z,1.80
2022-12-26T00:50:11.771Z,2.20
2022-12-26T00:52:20.173Z,2.33
2022-12-26T00:54:46.889Z,2.05
2022-12-26T00:57:13.611Z,2.22
2022-12-26T00:59:40.313Z,2.00
2022-12-26T01:02:27.031Z,2.17
2022-12-26T01:04:53.791Z,2.17
2022-12-26T01:07:20.541Z,2.20
2022-12-26T01:09:47.207Z,2.55
2022-12-26T01:12:13.904Z,2.08
2022-12-26T01:14:40.718Z,2.20
2022-12-26T01:17:07.451Z,2.10
2022-12-26T01:19:34.126Z,1.90
2022-12-26T01:22:01.672Z,2.35
2022-12-26T01:24:28.493Z,2.47
2022-12-26T01:26:55.249Z,1.95
2022-12-26T01:29:22.049Z,2.67
2022-12-26T01:31:48.878Z,2.42
2022-12-26T01:34:15.642Z,2.35
2022-12-26T01:36:42.412Z,1.95
2022-12-26T01:39:09.132Z,2.05
2022-12-26T01:41:36.459Z,2.15
2022-12-26T01:44:05.624Z,2.63
2022-12-26T01:46:37.133Z,1.90
2022-12-26T01:49:37.681Z,2.10
2022-12-26T01:52:07.072Z,1.80
2022-12-26T01:54:40.129Z,2.10
2022-12-26T01:57:15.106Z,1.88
2022-12-26T01:59:41.819Z,2.15
2022-12-26T02:02:08.670Z,2.40
2022-12-26T02:04:57.032Z,2.00
2022-12-26T02:07:23.916Z,1.90
2022-12-26T02:09:50.621Z,1.83
2022-12-26T02:12:37.428Z,2.25
2022-12-26T02:15:13.312Z,2.30
2022-12-26T02:17:40.489Z,2.10
2022-12-26T02:20:20.543Z,1.88
2022-12-26T02:23:24.749Z,2.17
2022-12-26T02:26:13.913Z,1.95
2022-12-26T02:28:52.657Z,2.10
2022-12-26T02:31:38.271Z,1.92
2022-12-26T02:34:16.707Z,1.98
2022-12-26T02:36:49.562Z,1.88
2022-12-26T02:39:53.851Z,2.00
2022-12-26T02:42:47.842Z,2.10
2022-12-26T02:45:42.779Z,1.70
2022-12-26T02:48:21.836Z,1.92
2022-12-26T02:51:11.279Z,1.90
2022-12-26T02:53:59.867Z,1.83
2022-12-26T02:56:49.264Z,1.98
2022-12-26T02:59:55.697Z,1.80
2022-12-26T03:02:54.444Z,2.15
2022-12-26T03:05:44.578Z,1.63
2022-12-26T03:08:31.338Z,1.98
2022-12-26T03:11:16.702Z,1.88
2022-12-26T03:13:43.369Z,1.73
2022-12-26T03:16:32.193Z,1.92
2022-12-26T03:19:02.843Z,1.70
2022-12-26T03:21:32.585Z,1.60
2022-12-26T03:23:59.372Z,1.60
2022-12-26T03:26:42.270Z,1.92
2022-12-26T03:29:41.450Z,1.83
2022-12-26T03:32:11.076Z,1.80
2022-12-26T03:34:44.773Z,2.28
2022-12-26T03:37:17.544Z,1.80
2022-12-26T03:40:53.704Z,1.83
2022-12-26T03:43:50.964Z,1.80
2022-12-26T03:46:53.250Z,1.92
2022-12-26T03:49:46.627Z,2.17
2022-12-26T03:52:47.721Z,2.13
2022-12-26T03:55:44.649Z,2.00
2022-12-26T03:58:38.623Z,1.63
2022-12-26T04:01:27.559Z,1.77
2022-12-26T04:04:12.805Z,1.90
2022-12-26T04:07:16.222Z,1.83
2022-12-26T04:10:39.588Z,2.05
2022-12-26T04:13:26.957Z,1.90
2022-12-26T04:16:15.536Z,1.75
2022-12-26T04:19:13.033Z,1.70
2022-12-26T04:22:06.490Z,1.70
2022-12-26T04:27:45.558Z,1.83
2022-12-26T04:30:31.088Z,1.60
2022-12-26T04:33:23.168Z,1.98
2022-12-26T04:36:14.215Z,1.77
2022-12-26T04:39:01.086Z,1.60
2022-12-26T04:41:49.685Z,2.22
2022-12-26T04:44:16.415Z,1.80
2022-12-26T04:46:47.414Z,1.70
2022-12-26T04:49:34.823Z,1.70
2022-12-26T04:52:03.377Z,2.50
2022-12-26T04:54:30.093Z,1.90
2022-12-26T04:56:57.052Z,1.70
2022-12-26T04:59:24.289Z,1.58
2022-12-26T05:02:09.732Z,1.70
2022-12-26T05:04:55.248Z,2.00
2022-12-26T05:07:46.691Z,1.70
2022-12-26T05:10:17.943Z,2.10
2022-12-26T05:12:44.842Z,1.77
2022-12-26T05:15:11.938Z,2.15
2022-12-26T05:17:57.717Z,1.60
2022-12-26T05:20:34.614Z,1.77
2022-12-26T05:23:20.815Z,1.92
2022-12-26T05:26:06.983Z,1.63
2022-12-26T05:28:46.940Z,1.75
2022-12-26T05:31:16.646Z,2.08
2022-12-26T05:34:02.591Z,1.83
2022-12-26T05:36:34.623Z,1.60
2022-12-26T05:39:05.455Z,1.48
2022-12-26T05:41:33.435Z,1.67
2022-12-26T05:44:04.127Z,1.58
2022-12-26T05:46:34.531Z,1.50
2022-12-26T05:49:05.555Z,2.00
2022-12-26T05:51:38.747Z,1.60
2022-12-26T05:54:14.110Z,2.17
2022-12-26T05:56:49.238Z,1.70
2022-12-26T05:59:17.462Z,1.73
2022-12-26T06:01:54.536Z,1.67
2022-12-26T06:04:24.147Z,1.83
2022-12-26T06:06:53.345Z,1.98
2022-12-26T06:09:21.315Z,1.75
2022-12-26T06:11:50.000Z,1.60
2022-12-26T06:14:18.100Z,2.00
2022-12-26T06:16:46.109Z,1.70
2022-12-26T06:19:13.927Z,1.80
2022-12-26T06:21:41.902Z,1.63
2022-12-26T06:24:09.393Z,1.77
2022-12-26T06:26:38.653Z,2.00
2022-12-26T06:29:06.727Z,2.15
2022-12-26T06:31:35.037Z,1.92
2022-12-26T06:34:02.899Z,2.10
2022-12-26T06:36:31.146Z,1.92
2022-12-26T06:38:59.219Z,2.00
2022-12-26T06:41:27.469Z,1.75
2022-12-26T06:43:58.583Z,1.83
2022-12-26T06:46:26.602Z,1.98
2022-12-26T06:49:04.924Z,1.83
2022-12-26T06:51:33.311Z,1.90
2022-12-26T06:54:03.055Z,2.15
2022-12-26T06:56:34.217Z,2.00
2022-12-26T06:59:05.621Z,2.00
2022-12-26T07:01:35.898Z,2.00
2022-12-26T07:04:07.310Z,1.90
2022-12-26T07:06:47.443Z,1.65
2022-12-26T07:09:31.478Z,1.85
2022-12-26T07:12:04.214Z,1.50
2022-12-26T07:14:34.378Z,2.13
2022-12-26T07:17:01.880Z,2.00
2022-12-26T07:19:35.395Z,2.05
2022-12-26T07:22:05.905Z,1.80
2022-12-26T07:24:33.463Z,1.50
2022-12-26T07:27:01.022Z,2.20
2022-12-26T07:29:28.476Z,2.40
2022-12-26T07:31:55.978Z,2.00
2022-12-26T07:34:29.447Z,1.88
2022-12-26T07:36:58.836Z,2.10
2022-12-26T07:39:26.082Z,2.00
2022-12-26T07:41:59.782Z,1.67
2022-12-26T07:44:31.234Z,2.00
2022-12-26T07:47:02.797Z,2.80
2022-12-26T07:49:33.114Z,2.50
2022-12-26T07:52:00.781Z,2.20
2022-12-26T07:54:30.376Z,1.88
2022-12-26T07:57:29.903Z,1.52
2022-12-26T07:59:51.998Z,1.77
2022-12-26T08:02:24.190Z,2.27
2022-12-26T08:04:51.849Z,2.00
2022-12-26T08:07:20.858Z,1.90
2022-12-26T08:09:50.609Z,2.20
2022-12-26T08:12:21.915Z,2.05
2022-12-26T08:14:52.338Z,2.13
2022-12-26T08:17:19.840Z,2.13
2022-12-26T08:19:50.220Z,2.22
2022-12-26T08:22:17.783Z,2.50
2022-12-26T08:24:45.341Z,2.13
2022-12-26T08:27:13.018Z,2.17
2022-12-26T08:29:40.671Z,2.10
2022-12-26T08:32:08.437Z,2.00
2022-12-26T08:34:41.738Z,2.00
2022-12-26T08:37:11.953Z,2.45
2022-12-26T08:39:41.756Z,2.00
2022-12-26T08:42:09.322Z,2.10
2022-12-26T08:44:37.089Z,1.90
2022-12-26T08:47:11.094Z,2.22
2022-12-26T08:49:38.723Z,1.88
2022-12-26T08:52:11.743Z,2.10
2022-12-26T08:57:06.663Z,2.30
2022-12-26T08:59:37.128Z,2.17
2022-12-26T09:02:05.810Z,2.30
2022-12-26T09:04:39.159Z,3.10
2022-12-26T09:07:11.621Z,2.55
2022-12-26T09:09:39.155Z,3.05
2022-12-26T09:12:11.883Z,3.08
2022-12-26T09:14:39.241Z,2.78
2022-12-26T09:17:07.289Z,3.10
2022-12-26T09:19:35.220Z,3.53
2022-12-26T09:22:22.545Z,3.42
2022-12-26T09:24:56.342Z,3.53
2022-12-26T09:27:32.532Z,3.40
2022-12-26T09:30:02.403Z,3.40
2022-12-26T09:32:39.983Z,3.58
2022-12-26T09:35:13.785Z,3.67
2022-12-26T09:37:41.477Z,3.92
2022-12-26T09:40:10.893Z,3.97
2022-12-26T09:43:02.317Z,4.10
2022-12-26T09:49:18.187Z,5.30
2022-12-26T09:51:52.305Z,8.52
2022-12-26T09:54:43.981Z,7.15
2022-12-26T09:57:17.957Z,7.55
2022-12-26T09:59:53.597Z,7.32
2022-12-26T10:02:23.763Z,6.28
2022-12-26T10:04:52.081Z,6.38
2022-12-26T10:07:30.609Z,5.00
2022-12-26T10:13:40.921Z,7.00
2022-12-26T10:16:35.884Z,6.18
2022-12-26T10:19:12.625Z,6.35
2022-12-26T10:22:03.984Z,6.05
2022-12-26T10:24:37.166Z,6.15
2022-12-26T10:27:15.778Z,4.80
2022-12-26T10:30:15.613Z,4.13
2022-12-26T10:32:49.214Z,4.43
2022-12-26T10:35:32.657Z,4.43
2022-12-26T10:38:36.708Z,4.15
2022-12-26T10:41:13.080Z,3.92
2022-12-26T10:43:48.006Z,3.97
2022-12-26T10:46:33.275Z,4.65
2022-12-26T10:49:03.227Z,4.10
2022-12-26T10:51:38.919Z,4.13
2022-12-26T10:54:18.854Z,4.47
2022-12-26T10:56:52.550Z,3.50
2022-12-26T10:59:47.492Z,4.22
2022-12-26T11:02:32.439Z,3.65
2022-12-26T11:05:21.885Z,3.88
2022-12-26T11:08:13.589Z,3.47
2022-12-26T11:10:47.192Z,3.20
2022-12-26T11:13:23.964Z,4.20
2022-12-26T11:15:58.112Z,6.30
2022-12-26T11:18:35.211Z,5.90
2022-12-26T11:21:28.212Z,10.40
2022-12-26T11:24:25.828Z,9.98
2022-12-26T11:26:54.052Z,5.13
2022-12-26T11:29:24.741Z,3.97
2022-12-26T11:32:03.200Z,4.70
2022-12-26T11:34:37.569Z,3.30
2022-12-26T11:37:11.729Z,3.58
2022-12-26T11:39:39.493Z,3.72
2022-12-26T11:42:15.869Z,3.60
2022-12-26T11:44:54.473Z,4.40
2022-12-26T11:47:29.398Z,5.40
2022-12-26T11:50:20.637Z,4.25
2022-12-26T11:53:02.047Z,4.18
2022-12-26T11:55:41.610Z,4.47
2022-12-26T11:58:09.386Z,2.67
2022-12-26T12:00:39.926Z,2.42
2022-12-26T12:03:13.745Z,2.67
2022-12-26T12:06:13.660Z,2.63
2022-12-26T12:09:03.833Z,2.10
2022-12-26T12:11:42.847Z,3.33
2022-12-26T12:14:42.360Z,2.17
2022-12-26T12:17:44.123Z,2.78
2022-12-26T12:20:35.656Z,4.63
2022-12-26T12:23:23.284Z,7.03
2022-12-26T12:26:06.252Z,6.80
2022-12-26T12:28:49.267Z,4.88
2022-12-26T12:31:40.863Z,2.80
2022-12-26T12:34:38.828Z,2.20
2022-12-26T12:37:34.030Z,1.60
2022-12-26T12:40:20.735Z,1.20
2022-12-26T12:43:10.373Z,1.73
2022-12-26T12:46:17.718Z,2.33
2022-12-26T12:49:08.104Z,2.53
2022-12-26T12:51:46.621Z,2.50
2022-12-26T12:54:19.806Z,2.05
2022-12-26T12:57:26.347Z,2.05
2022-12-26T13:00:22.718Z,2.03
2022-12-26T13:03:20.950Z,1.67
2022-12-26T13:06:21.330Z,1.80
2022-12-26T13:08:55.952Z,1.52
2022-12-26T13:11:56.155Z,1.65
2022-12-26T13:14:30.881Z,1.48
2022-12-26T13:17:10.876Z,1.55
2022-12-26T13:20:02.341Z,1.10
2022-12-26T13:23:06.653Z,1.25
2022-12-26T13:28:17.436Z,1.00
2022-12-26T13:30:52.309Z,1.20
2022-12-26T13:33:27.504Z,1.08
2022-12-26T13:36:03.735Z,0.90
2022-12-26T13:38:58.870Z,0.95
2022-12-26T13:41:44.349Z,1.27
2022-12-26T13:44:21.697Z,0.90
2022-12-26T13:46:48.889Z,0.70
2022-12-26T13:49:40.185Z,0.70
2022-12-26T13:52:16.504Z,0.95
2022-12-26T13:54:50.748Z,2.65
2022-12-26T13:57:52.346Z,1.05
2022-12-26T14:00:26.454Z,1.20
2022-12-26T14:03:34.332Z,1.13
2022-12-26T14:06:30.802Z,1.33
2022-12-26T14:09:26.412Z,2.00
2022-12-26T14:12:10.053Z,1.58
2022-12-26T14:14:53.949Z,1.98
2022-12-26T14:17:35.075Z,1.10
2022-12-26T14:20:23.898Z,1.20
2022-12-26T14:23:15.044Z,0.90
2022-12-26T14:25:51.420Z,1.50
2022-12-26T14:28:39.207Z,1.20
2022-12-26T14:32:01.790Z,1.45
2022-12-26T14:34:57.002Z,1.05
2022-12-26T14:37:46.779Z,1.50
2022-12-26T14:40:30.623Z,1.80
2022-12-26T14:43:16.098Z,1.73
2022-12-26T14:45:54.763Z,2.13
2022-12-26T14:48:30.280Z,1.65
2022-12-26T14:51:29.666Z,1.70
2022-12-26T14:54:26.191Z,0.98
2022-12-26T14:57:11.830Z,1.30
2022-12-26T15:00:03.198Z,1.60
2022-12-26T15:02:36.324Z,1.00
2022-12-26T15:05:14.388Z,0.80
2022-12-26T15:08:09.082Z,1.10
2022-12-26T15:11:14.655Z,0.80
2022-12-26T15:14:08.697Z,1.55
2022-12-26T15:16:42.220Z,1.05
2022-12-26T15:19:18.788Z,0.90
2022-12-26T15:22:04.533Z,1.05
2022-12-26T15:25:20.549Z,0.90
2022-12-26T15:27:57.880Z,1.00
2022-12-26T15:30:47.567Z,1.10
2022-12-26T15:33:48.063Z,1.20
2022-12-26T15:36:36.729Z,2.78
2022-12-26T15:39:21.506Z,1.88
2022-12-26T15:42:08.114Z,1.38
2022-12-26T15:45:04.640Z,1.42
2022-12-26T15:48:04.558Z,1.27
2022-12-26T15:50:40.424Z,1.10
2022-12-26T15:53:24.153Z,1.20
2022-12-26T15:56:31.546Z,1.70
2022-12-26T15:59:09.688Z,1.80
2022-12-26T16:01:39.759Z,1.85
2022-12-26T16:04:29.663Z,2.03
2022-12-26T16:07:28.142Z,2.20
2022-12-26T16:10:00.245Z,1.98
2022-12-26T16:12:33.922Z,1.90
2022-12-26T16:15:12.673Z,1.60
2022-12-26T16:17:45.319Z,1.58
2022-12-26T16:20:47.999Z,1.90
2022-12-26T16:23:26.002Z,2.20
2022-12-26T16:25:55.616Z,1.80
2022-12-26T16:28:29.118Z,1.85
2022-12-26T16:30:59.995Z,1.80
2022-12-26T16:33:34.566Z,2.17
2022-12-26T16:36:02.852Z,2.08
2022-12-26T16:38:31.842Z,2.80
2022-12-26T16:41:01.349Z,2.90
2022-12-26T16:43:35.463Z,2.38
2022-12-26T16:46:05.429Z,2.13
2022-12-26T16:48:33.857Z,1.88
2022-12-26T16:51:08.994Z,1.77
2022-12-26T16:53:38.991Z,1.70
2022-12-26T16:56:27.348Z,1.98
2022-12-26T16:59:06.384Z,1.48
2022-12-26T17:01:36.710Z,1.60
2022-12-26T17:04:06.341Z,1.45
2022-12-26T17:06:35.565Z,2.20
2022-12-26T17:09:19.559Z,3.60
2022-12-26T17:12:04.628Z,3.90
2022-12-26T17:14:46.446Z,2.90
2022-12-26T17:17:26.489Z,2.40
2022-12-26T17:20:01.938Z,2.33
2022-12-26T17:22:34.389Z,2.20
2022-12-26T17:25:34.003Z,1.70
2022-12-26T17:28:19.074Z,1.73
2022-12-26T17:30:47.626Z,2.67
2022-12-26T17:33:30.452Z,2.33
2022-12-26T17:39:28.795Z,1.75
2022-12-26T17:42:08.859Z,1.50
2022-12-26T17:44:46.624Z,1.80
2022-12-26T17:47:44.391Z,2.08
2022-12-26T17:50:12.288Z,2.10
2022-12-26T17:52:43.125Z,2.50
2022-12-26T17:55:28.382Z,2.05
2022-12-26T17:57:58.659Z,3.45
2022-12-26T18:00:35.698Z,4.68
2022-12-26T18:03:11.860Z,6.03
2022-12-26T18:05:53.250Z,2.33
2022-12-26T18:08:27.231Z,2.25
2022-12-26T18:11:10.866Z,1.67
2022-12-26T18:16:39.997Z,2.70
2022-12-26T18:19:10.304Z,2.20
2022-12-26T18:21:45.583Z,2.13
2022-12-26T18:24:30.329Z,2.00
2022-12-26T18:26:58.930Z,1.98
2022-12-26T18:29:32.531Z,3.78
2022-12-26T18:32:07.761Z,2.95
2022-12-26T18:34:43.900Z,1.92
2022-12-26T18:37:19.335Z,1.63
2022-12-26T18:39:48.033Z,1.15
2022-12-26T18:42:30.574Z,1.15
2022-12-26T18:45:04.040Z,1.10
2022-12-26T18:47:40.851Z,1.02
2022-12-26T18:50:21.320Z,1.17
2022-12-26T18:53:16.831Z,0.98
2022-12-26T18:55:51.204Z,1.13
2022-12-26T18:58:22.349Z,1.00
2022-12-26T19:01:03.449Z,1.73
2022-12-26T19:03:32.828Z,1.33
2022-12-26T19:06:38.907Z,1.40
2022-12-26T19:09:25.291Z,1.05
2022-12-26T19:12:13.075Z,0.90
2022-12-26T19:15:09.973Z,0.90
2022-12-26T19:17:54.945Z,1.30
2022-12-26T19:20:44.166Z,1.00
2022-12-26T19:23:46.687Z,1.35
2022-12-26T19:26:56.535Z,0.90
2022-12-26T19:29:44.162Z,1.15
2022-12-26T19:32:27.698Z,1.55
2022-12-26T19:35:07.694Z,1.00
2022-12-26T19:43:50.669Z,1.05
2022-12-26T19:47:11.004Z,0.85
2022-12-26T19:50:53.274Z,0.80
2022-12-26T19:53:53.858Z,0.93
2022-12-26T19:56:36.369Z,0.90
2022-12-26T20:04:02.165Z,0.73
2022-12-26T20:06:15.440Z,0.60
2022-12-26T20:09:15.038Z,0.50
2022-12-26T20:11:57.250Z,0.47
2022-12-26T20:14:39.149Z,0.70
2022-12-26T20:17:29.794Z,0.50
2022-12-26T20:20:13.489Z,0.50
2022-12-26T20:28:27.471Z,0.68
2022-12-26T20:34:03.352Z,0.60
2022-12-26T20:37:14.028Z,0.80
2022-12-26T20:39:47.827Z,0.50
2022-12-26T20:42:24.184Z,0.65
2022-12-26T20:45:34.795Z,0.60
2022-12-26T20:55:29.040Z,1.05
2022-12-26T20:58:00.232Z,0.50
2022-12-26T21:00:30.856Z,0.50
2022-12-26T21:03:37.612Z,0.63
2022-12-26T21:06:27.037Z,0.75
2022-12-26T21:08:54.553Z,1.20
2022-12-26T21:11:34.971Z,0.80
2022-12-26T21:14:11.612Z,0.80
2022-12-26T21:17:10.202Z,1.00
2022-12-26T21:19:38.011Z,0.70
2022-12-26T21:24:46.699Z,0.50
2022-12-26T21:27:22.819Z,0.90
2022-12-26T21:29:50.318Z,0.52
2022-12-26T21:32:18.158Z,0.80
2022-12-26T21:34:45.784Z,0.90
2022-12-26T21:37:36.768Z,0.98
2022-12-26T21:40:11.651Z,0.55
2022-12-26T21:42:40.912Z,0.80
2022-12-26T21:45:13.784Z,0.80
2022-12-26T21:47:41.442Z,0.60
2022-12-26T21:50:15.504Z,1.20
2022-12-26T21:52:43.037Z,1.67
2022-12-26T21:55:28.921Z,0.93
2022-12-26T21:58:57.510Z,1.02
2022-12-26T22:01:33.985Z,0.73
2022-12-26T22:04:19.980Z,0.80
2022-12-26T22:06:51.687Z,0.60
2022-12-26T22:09:36.180Z,0.82
2022-12-26T22:12:25.035Z,0.88
2022-12-26T22:15:03.128Z,0.90
2022-12-26T22:17:52.363Z,0.82
2022-12-26T22:20:19.223Z,0.75
2022-12-26T22:22:45.912Z,0.90
2022-12-26T22:25:12.838Z,0.85
2022-12-26T22:27:39.559Z,0.90
2022-12-26T22:30:06.743Z,0.80
2022-12-26T22:32:33.506Z,0.85
2022-12-26T22:35:00.170Z,0.90
2022-12-26T22:37:26.886Z,0.80
2022-12-26T22:39:53.778Z,0.90
2022-12-26T22:42:20.669Z,0.80
2022-12-26T22:44:47.363Z,1.23
2022-12-26T22:47:14.111Z,1.25
2022-12-26T22:49:40.787Z,0.85
2022-12-26T22:52:12.433Z,0.80
2022-12-26T22:54:43.768Z,1.42
2022-12-26T22:57:10.514Z,1.33
2022-12-26T23:00:07.076Z,1.38
2022-12-26T23:02:24.317Z,1.20
2022-12-26T23:04:51.369Z,0.93
2022-12-26T23:07:20.291Z,1.10
2022-12-26T23:09:48.087Z,0.90
2022-12-26T23:12:33.759Z,1.00
2022-12-26T23:15:00.639Z,1.08
2022-12-26T23:17:53.511Z,0.77
2022-12-26T23:20:38.737Z,0.65
2022-12-26T23:23:05.760Z,0.70
2022-12-26T23:25:32.511Z,0.63
2022-12-26T23:28:17.835Z,0.90
2022-12-26T23:30:44.553Z,0.77
2022-12-26T23:33:11.347Z,0.90
2022-12-26T23:35:40.063Z,0.77
2022-12-26T23:38:06.814Z,0.73
2022-12-26T23:40:33.531Z,0.65
2022-12-26T23:43:00.239Z,0.73
2022-12-26T23:45:27.055Z,0.65
2022-12-26T23:47:53.745Z,0.70
2022-12-26T23:50:20.501Z,0.80
2022-12-26T23:52:47.262Z,0.70
2022-12-26T23:55:14.094Z,0.98
2022-12-26T23:57:40.848Z,1.17
